Time;durP1;ratioP1;P1;durP2;ratioP2;P2;SDS_P1;SDS_P2;PMS_P1;PMS_P2;Temp;Humidity;BMP_temperature;BMP_pressure;BME280_temperature;BME280_humidity;BME280_pressure;Samples;Min_cycle;Max_cycle;Signal;HPM_P1;HPM_P2
2021/12/02 00:01:33;;;;;;;8.53;4.13;;;8.10;99.90;;;;;;4931268;28;22109;-86
2021/12/02 00:03:59;;;;;;;5.07;4.10;;;8.10;99.90;;;;;;4914330;28;20534;-85
2021/12/02 00:06:30;;;;;;;5.87;3.83;;;8.10;99.90;;;;;;4937030;28;20506;-86
2021/12/02 00:08:56;;;;;;;5.13;3.80;;;8.10;99.90;;;;;;4917186;28;20454;-84
2021/12/02 00:14:01;;;;;;;6.80;4.00;;;8.10;99.90;;;;;;4915943;28;21002;-85
2021/12/02 00:16:36;;;;;;;5.70;4.57;;;8.10;99.90;;;;;;4914248;28;20528;-85
2021/12/02 00:21:54;;;;;;;6.50;5.03;;;8.00;99.90;;;;;;4913027;28;20474;-84
2021/12/02 00:24:24;;;;;;;7.53;4.20;;;8.10;99.90;;;;;;4895784;29;20477;-85
2021/12/02 00:26:52;;;;;;;5.67;4.43;;;8.00;99.90;;;;;;4899774;29;20509;-85
2021/12/02 00:29:21;;;;;;;8.30;5.53;;;8.10;99.90;;;;;;4895012;29;20451;-86
2021/12/02 00:31:51;;;;;;;6.27;4.33;;;8.10;99.90;;;;;;4885621;29;20592;-85
2021/12/02 00:34:19;;;;;;;4.83;4.33;;;8.10;99.90;;;;;;4896357;29;20466;-85
2021/12/02 00:36:46;;;;;;;7.90;5.20;;;8.10;99.90;;;;;;4892908;29;20455;-85
2021/12/02 00:39:18;;;;;;;5.60;4.70;;;8.10;99.90;;;;;;4895184;29;20464;-85
2021/12/02 00:41:46;;;;;;;6.00;5.40;;;8.00;99.90;;;;;;4893190;29;20486;-86
2021/12/02 00:44:14;;;;;;;10.50;6.57;;;8.10;99.90;;;;;;4897709;29;20466;-85
2021/12/02 00:46:43;;;;;;;8.50;5.30;;;8.10;99.90;;;;;;4894770;29;20485;-85
2021/12/02 00:49:15;;;;;;;5.40;4.87;;;8.00;99.90;;;;;;4903230;29;20466;-85
2021/12/02 00:51:50;;;;;;;7.10;5.20;;;8.00;99.90;;;;;;4901824;29;20546;-85
2021/12/02 00:54:18;;;;;;;7.43;4.53;;;8.00;99.90;;;;;;4916677;28;21237;-88
2021/12/02 00:56:45;;;;;;;5.90;4.80;;;8.00;99.90;;;;;;4902523;29;20470;-85
2021/12/02 00:59:11;;;;;;;5.93;5.33;;;8.00;99.90;;;;;;4901278;29;20936;-84
2021/12/02 01:01:38;;;;;;;7.63;5.43;;;8.00;99.90;;;;;;4901525;29;20991;-84
2021/12/02 01:04:11;;;;;;;7.20;4.50;;;8.00;99.90;;;;;;4902881;29;20493;-85
2021/12/02 01:06:41;;;;;;;9.07;5.63;;;8.00;99.90;;;;;;4902886;29;20487;-84
2021/12/02 01:09:11;;;;;;;7.70;5.07;;;8.00;99.90;;;;;;4895760;29;20458;-84
2021/12/02 01:11:39;;;;;;;6.17;5.33;;;7.90;99.90;;;;;;4898680;29;20462;-85
2021/12/02 01:14:06;;;;;;;6.90;5.33;;;8.00;99.90;;;;;;4895191;29;20455;-84
2021/12/02 01:16:33;;;;;;;7.30;5.10;;;8.00;99.90;;;;;;4909024;28;20460;-85
2021/12/02 01:19:00;;;;;;;6.03;5.37;;;7.90;99.90;;;;;;4919513;28;20523;-84
2021/12/02 01:21:28;;;;;;;8.10;5.13;;;7.90;99.90;;;;;;4926526;28;20537;-85
2021/12/02 01:23:59;;;;;;;11.10;5.80;;;7.90;99.90;;;;;;4931312;28;20461;-84
2021/12/02 01:26:28;;;;;;;7.70;5.53;;;7.90;99.90;;;;;;4931043;28;20578;-85
2021/12/02 01:28:56;;;;;;;7.90;5.30;;;7.90;99.90;;;;;;4923953;29;20501;-85
2021/12/02 01:31:38;;;;;;;6.70;6.00;;;7.90;99.90;;;;;;4872388;29;20486;-85
2021/12/02 01:34:08;;;;;;;8.63;5.50;;;7.90;99.90;;;;;;4875145;29;20462;-85
2021/12/02 01:36:37;;;;;;;7.87;5.47;;;7.90;99.90;;;;;;4914390;29;20474;-84
2021/12/02 01:39:05;;;;;;;7.17;5.73;;;7.90;99.90;;;;;;4904349;29;20480;-84
2021/12/02 01:41:53;;;;;;;6.37;5.37;;;7.90;99.90;;;;;;4914553;29;20483;-84
2021/12/02 01:44:22;;;;;;;5.63;5.00;;;7.90;99.90;;;;;;4917766;28;20454;-83
2021/12/02 01:46:52;;;;;;;5.83;4.80;;;7.90;99.90;;;;;;4922598;29;21893;-84
2021/12/02 01:49:21;;;;;;;7.00;4.73;;;7.80;99.90;;;;;;4916285;28;20463;-84
2021/12/02 01:51:51;;;;;;;8.10;4.70;;;7.80;99.90;;;;;;4916677;29;20493;-85
2021/12/02 01:54:20;;;;;;;7.40;5.10;;;7.80;99.90;;;;;;4909608;28;20460;-86
2021/12/02 01:56:49;;;;;;;7.10;5.27;;;7.80;99.90;;;;;;4904991;29;20463;-84
2021/12/02 01:59:19;;;;;;;5.17;4.50;;;7.80;99.90;;;;;;4905397;29;20469;-85
2021/12/02 02:01:51;;;;;;;5.63;4.30;;;7.80;99.90;;;;;;4902560;29;20465;-84
2021/12/02 02:04:20;;;;;;;7.37;4.93;;;7.80;99.90;;;;;;4904116;29;20520;-85
2021/12/02 02:07:05;;;;;;;6.63;4.83;;;7.80;99.90;;;;;;4902143;29;20478;-85
2021/12/02 02:09:34;;;;;;;6.07;4.00;;;7.80;99.90;;;;;;4900240;29;20591;-85
2021/12/02 02:12:07;;;;;;;5.63;5.03;;;7.80;99.90;;;;;;4906077;29;20489;-85
2021/12/02 02:14:34;;;;;;;6.07;5.47;;;7.80;99.90;;;;;;4899409;29;20586;-84
2021/12/02 02:17:08;;;;;;;8.87;4.90;;;7.80;99.90;;;;;;4898272;29;20467;-84
2021/12/02 02:19:35;;;;;;;5.70;4.63;;;7.80;99.90;;;;;;4904257;29;21268;-86
2021/12/02 02:22:02;;;;;;;5.87;5.10;;;7.80;99.90;;;;;;4901792;28;20475;-86
2021/12/02 02:24:30;;;;;;;7.17;5.00;;;7.80;99.90;;;;;;4898214;29;20941;-85
2021/12/02 02:26:57;;;;;;;6.53;4.70;;;7.80;99.90;;;;;;4897219;29;20495;-85
2021/12/02 02:29:24;;;;;;;6.60;4.57;;;7.80;99.90;;;;;;4897515;29;20464;-87
2021/12/02 02:31:50;;;;;;;6.87;4.90;;;7.80;99.90;;;;;;4904329;29;20479;-86
2021/12/02 02:34:22;;;;;;;9.17;5.47;;;7.80;99.90;;;;;;4901485;29;20467;-85
2021/12/02 02:36:54;;;;;;;6.13;4.93;;;7.80;99.90;;;;;;4904624;29;20459;-86
2021/12/02 02:39:22;;;;;;;9.87;5.40;;;7.80;99.90;;;;;;4900043;29;20458;-86
2021/12/02 02:42:00;;;;;;;6.20;5.60;;;7.80;99.90;;;;;;4898992;29;21998;-87
2021/12/02 02:44:29;;;;;;;7.03;5.27;;;7.80;99.90;;;;;;4895779;29;20478;-85
2021/12/02 02:46:56;;;;;;;6.90;5.60;;;7.70;99.90;;;;;;4904363;28;20498;-84
2021/12/02 02:49:22;;;;;;;8.30;5.73;;;7.80;99.90;;;;;;4900803;29;20519;-84
2021/12/02 02:51:50;;;;;;;6.47;4.80;;;7.80;99.90;;;;;;4902543;29;20482;-86
2021/12/02 02:54:17;;;;;;;8.00;4.73;;;7.70;99.90;;;;;;4896938;29;20477;-85
2021/12/02 02:57:12;;;;;;;8.77;4.73;;;7.80;99.90;;;;;;4900812;29;20471;-84
2021/12/02 03:02:33;;;;;;;8.83;5.20;;;7.70;99.90;;;;;;4895915;29;20953;-86
2021/12/02 03:05:23;;;;;;;5.93;5.33;;;7.70;99.90;;;;;;4901440;29;20460;-84
2021/12/02 03:07:57;;;;;;;6.80;4.40;;;7.70;99.90;;;;;;4897162;28;20504;-84
2021/12/02 03:10:42;;;;;;;6.77;4.63;;;7.70;99.90;;;;;;4902305;29;20457;-83
2021/12/02 03:13:23;;;;;;;7.03;3.93;;;7.60;99.90;;;;;;4901497;29;20777;-85
2021/12/02 03:18:36;;;;;;;6.70;4.20;;;7.60;99.90;;;;;;4897902;29;20473;-84
2021/12/02 03:21:17;;;;;;;3.40;3.10;;;7.60;99.90;;;;;;4897032;29;20451;-84
2021/12/02 03:23:56;;;;;;;5.97;4.30;;;7.50;99.90;;;;;;4901842;29;20489;-85
2021/12/02 03:26:24;;;;;;;13.00;4.40;;;7.50;99.90;;;;;;4896302;29;22269;-85
2021/12/02 03:28:52;;;;;;;4.40;3.43;;;7.60;99.90;;;;;;4895212;29;20609;-85
2021/12/02 03:31:19;;;;;;;5.97;3.93;;;7.60;99.90;;;;;;4897502;29;20463;-85
2021/12/02 03:33:47;;;;;;;5.90;3.57;;;7.60;99.90;;;;;;4894444;29;20513;-86
2021/12/02 03:36:16;;;;;;;5.60;3.60;;;7.60;99.90;;;;;;4898575;29;20469;-84
2021/12/02 03:38:43;;;;;;;7.23;3.87;;;7.60;99.90;;;;;;4901078;29;20467;-85
2021/12/02 03:41:10;;;;;;;5.70;3.73;;;7.60;99.90;;;;;;4896888;29;20466;-83
2021/12/02 03:43:39;;;;;;;4.77;3.97;;;7.50;99.90;;;;;;4894384;28;20487;-84
2021/12/02 03:46:07;;;;;;;5.03;3.90;;;7.50;99.90;;;;;;4914539;29;21573;-85
2021/12/02 03:48:38;;;;;;;12.20;5.77;;;7.50;99.90;;;;;;4907204;29;21474;-86
2021/12/02 03:51:07;;;;;;;3.30;3.00;;;7.50;99.90;;;;;;4898989;29;20463;-84
2021/12/02 03:53:34;;;;;;;3.40;3.10;;;7.40;99.90;;;;;;4897807;29;20491;-84
2021/12/02 03:56:02;;;;;;;5.17;3.70;;;7.40;99.90;;;;;;4907643;29;20466;-83
2021/12/02 03:58:31;;;;;;;3.70;3.33;;;7.40;99.90;;;;;;4891480;29;20466;-84
2021/12/02 04:00:59;;;;;;;6.30;3.80;;;7.40;99.90;;;;;;4899627;28;21241;-84
2021/12/02 04:03:25;;;;;;;4.93;3.80;;;7.40;99.90;;;;;;4898054;29;20873;-85
2021/12/02 04:05:52;;;;;;;5.43;3.40;;;7.40;99.90;;;;;;4899720;29;20466;-87
2021/12/02 04:08:24;;;;;;;4.40;4.00;;;7.40;99.90;;;;;;4897427;29;20499;-85
2021/12/02 04:10:58;;;;;;;4.77;3.33;;;7.40;99.90;;;;;;4899851;29;20485;-86
2021/12/02 04:13:30;;;;;;;5.70;3.57;;;7.40;99.90;;;;;;4896617;29;20584;-84
2021/12/02 04:16:02;;;;;;;4.83;3.53;;;7.40;99.90;;;;;;4892014;29;20878;-84
2021/12/02 04:18:31;;;;;;;7.27;4.60;;;7.40;99.90;;;;;;4895645;29;20466;-84
2021/12/02 04:21:01;;;;;;;4.03;3.27;;;7.40;99.90;;;;;;4896543;29;20466;-86
2021/12/02 04:23:31;;;;;;;6.17;3.50;;;7.40;99.90;;;;;;4899684;29;20486;-84
2021/12/02 04:25:57;;;;;;;7.77;3.37;;;7.40;99.90;;;;;;4911158;28;20457;-86
2021/12/02 04:28:25;;;;;;;4.13;3.17;;;7.30;99.90;;;;;;4900389;29;20517;-86
2021/12/02 04:30:51;;;;;;;8.07;3.67;;;7.30;99.90;;;;;;4901327;29;21780;-85
2021/12/02 04:33:18;;;;;;;3.83;2.93;;;7.30;99.90;;;;;;4898880;29;20472;-84
2021/12/02 04:35:46;;;;;;;3.90;2.63;;;7.30;99.90;;;;;;4893544;29;20454;-83
2021/12/02 04:38:12;;;;;;;2.70;2.50;;;7.30;99.90;;;;;;4899854;29;21027;-84
2021/12/02 04:40:41;;;;;;;3.73;2.67;;;7.20;99.90;;;;;;4898275;29;20459;-85
2021/12/02 04:43:08;;;;;;;4.77;2.93;;;7.30;99.90;;;;;;4897904;29;20498;-83
2021/12/02 04:45:43;;;;;;;6.90;3.00;;;7.30;99.90;;;;;;4898533;29;20458;-85
2021/12/02 04:48:11;;;;;;;4.37;2.33;;;7.30;99.90;;;;;;4900046;29;22046;-86
2021/12/02 04:50:38;;;;;;;2.30;2.00;;;7.30;99.90;;;;;;4898371;29;20522;-83
2021/12/02 04:53:08;;;;;;;3.73;2.03;;;7.20;99.90;;;;;;4904089;29;20511;-84
2021/12/02 04:55:36;;;;;;;2.60;1.90;;;7.20;99.90;;;;;;4902846;29;20524;-84
2021/12/02 04:58:12;;;;;;;2.67;2.10;;;7.20;99.90;;;;;;4898970;29;20474;-82
2021/12/02 05:00:41;;;;;;;2.83;2.57;;;7.20;99.90;;;;;;4897258;29;21415;-84
2021/12/02 05:03:09;;;;;;;3.57;2.33;;;7.20;99.90;;;;;;4896515;29;20496;-85
2021/12/02 05:05:37;;;;;;;3.57;2.37;;;7.20;99.90;;;;;;4897405;29;20485;-84
2021/12/02 05:08:04;;;;;;;3.50;2.67;;;7.20;99.90;;;;;;4899039;29;20566;-84
2021/12/02 05:10:34;;;;;;;3.90;2.70;;;7.20;99.90;;;;;;4898845;29;20458;-85
2021/12/02 05:13:04;;;;;;;3.33;2.80;;;7.20;99.90;;;;;;4904155;29;20630;-85
2021/12/02 05:15:33;;;;;;;3.93;3.30;;;7.30;99.90;;;;;;4900574;29;20458;-84
2021/12/02 05:18:00;;;;;;;5.37;3.93;;;7.20;99.90;;;;;;4905304;28;20463;-84
2021/12/02 05:20:31;;;;;;;8.00;2.93;;;7.20;99.90;;;;;;4901015;29;20468;-84
2021/12/02 05:22:58;;;;;;;4.40;4.00;;;7.20;99.90;;;;;;4904185;29;20478;-85
2021/12/02 05:25:25;;;;;;;4.33;2.23;;;7.30;99.90;;;;;;4909876;29;20519;-83
2021/12/02 05:27:51;;;;;;;4.10;2.57;;;7.20;99.90;;;;;;4910665;29;20467;-83
2021/12/02 05:30:18;;;;;;;3.70;2.50;;;7.20;99.90;;;;;;4909025;29;20581;-84
2021/12/02 05:32:45;;;;;;;4.40;2.30;;;7.20;99.90;;;;;;4912275;29;22241;-86
2021/12/02 05:35:12;;;;;;;3.57;2.40;;;7.20;99.90;;;;;;4913867;29;20462;-85
2021/12/02 05:37:39;;;;;;;6.63;2.43;;;7.10;99.90;;;;;;4904949;29;20582;-84
2021/12/02 05:40:06;;;;;;;2.23;2.03;;;7.10;99.90;;;;;;4908740;29;20530;-84
2021/12/02 05:42:33;;;;;;;2.80;1.80;;;7.10;99.90;;;;;;4913252;29;20490;-84
2021/12/02 05:45:00;;;;;;;2.37;2.03;;;7.10;99.90;;;;;;4914945;29;20458;-83
2021/12/02 05:47:27;;;;;;;3.37;2.27;;;7.10;99.90;;;;;;4917293;29;20486;-86
2021/12/02 05:49:55;;;;;;;6.00;2.23;;;7.10;99.90;;;;;;4913808;29;20473;-84
2021/12/02 05:52:22;;;;;;;4.90;2.17;;;7.00;99.90;;;;;;4914598;29;20567;-83
2021/12/02 05:54:50;;;;;;;4.27;2.40;;;7.10;99.90;;;;;;4914128;29;20447;-84
2021/12/02 05:57:19;;;;;;;4.03;2.40;;;7.10;99.90;;;;;;4914128;28;20560;-84
2021/12/02 05:59:46;;;;;;;4.00;1.73;;;7.10;99.90;;;;;;4918644;28;20527;-84
2021/12/02 06:02:13;;;;;;;2.00;1.70;;;7.10;99.90;;;;;;4924103;28;20482;-84
2021/12/02 06:04:45;;;;;;;2.83;1.80;;;7.10;99.90;;;;;;4926867;28;20533;-83
2021/12/02 06:10:57;;;;;;;4.57;2.87;;;7.10;99.90;;;;;;4907330;28;20500;-83
2021/12/02 06:14:03;;;;;;;8.83;3.27;;;7.10;99.90;;;;;;4925069;29;21120;-85
2021/12/02 06:17:12;;;;;;;3.20;2.30;;;7.00;99.90;;;;;;4918141;29;20462;-84
2021/12/02 06:20:11;;;;;;;3.77;2.27;;;7.00;99.90;;;;;;4914115;29;20501;-84
2021/12/02 06:23:36;;;;;;;2.57;2.13;;;7.00;99.90;;;;;;4910811;29;20500;-84
2021/12/02 06:26:53;;;;;;;5.50;3.10;;;7.10;99.90;;;;;;4897038;29;20470;-84
2021/12/02 06:29:26;;;;;;;3.13;2.13;;;7.00;99.90;;;;;;4836090;29;20574;-84
2021/12/02 06:32:22;;;;;;;3.03;1.97;;;7.00;99.90;;;;;;4906344;28;20478;-82
2021/12/02 06:39:06;;;;;;;5.20;1.60;;;6.80;99.90;;;;;;4903856;29;20466;-84
2021/12/02 06:42:09;;;;;;;2.90;1.70;;;6.70;99.90;;;;;;4898686;29;20479;-85
2021/12/02 06:45:04;;;;;;;;;;;;;;;;;;;;;
2021/12/02 06:47:50;;;;;;;3.40;2.03;;;6.70;99.90;;;;;;4898701;29;20539;-84
2021/12/02 06:50:20;;;;;;;3.17;2.70;;;6.70;99.90;;;;;;4906996;29;20554;-83
2021/12/02 06:52:52;;;;;;;3.10;2.07;;;6.70;99.90;;;;;;4907108;29;20558;-83
2021/12/02 06:55:20;;;;;;;3.70;2.47;;;6.70;99.90;;;;;;4906600;29;20465;-84
2021/12/02 06:57:50;;;;;;;5.73;2.20;;;6.70;99.90;;;;;;4903037;29;20477;-85
2021/12/02 07:00:23;;;;;;;3.53;2.17;;;6.70;99.90;;;;;;4899935;29;20495;-83
2021/12/02 07:02:53;;;;;;;3.63;2.93;;;6.70;99.90;;;;;;4905341;29;20553;-85
2021/12/02 07:05:32;;;;;;;3.60;2.93;;;6.70;99.90;;;;;;4904401;29;20489;-84
2021/12/02 07:08:00;;;;;;;3.83;3.00;;;6.70;99.90;;;;;;4905182;29;21663;-85
2021/12/02 07:10:35;;;;;;;7.20;3.93;;;6.70;99.90;;;;;;4906828;29;20472;-85
2021/12/02 07:13:02;;;;;;;7.37;3.80;;;6.70;99.90;;;;;;4904371;29;20500;-83
2021/12/02 07:15:35;;;;;;;4.93;4.00;;;6.70;99.90;;;;;;4905612;29;20464;-85
2021/12/02 07:18:26;;;;;;;5.60;4.23;;;6.70;99.90;;;;;;4907160;29;20465;-84
2021/12/02 07:21:08;;;;;;;4.67;3.73;;;6.70;99.90;;;;;;4911607;29;20580;-84
2021/12/02 07:23:37;;;;;;;11.03;4.70;;;6.70;99.90;;;;;;4907113;29;20509;-84
2021/12/02 07:26:07;;;;;;;7.00;4.60;;;6.60;99.90;;;;;;4908575;29;20463;-83
2021/12/02 07:28:37;;;;;;;4.20;3.80;;;6.60;99.90;;;;;;4912615;29;20575;-83
2021/12/02 07:34:11;;;;;;;4.73;3.17;;;6.60;99.90;;;;;;4887487;29;20521;-84
2021/12/02 07:37:05;;;;;;;3.07;2.47;;;6.70;99.90;;;;;;4908270;29;20471;-83
2021/12/02 07:39:55;;;;;;;3.50;3.13;;;6.70;99.90;;;;;;4905517;29;20459;-84
2021/12/02 07:42:32;;;;;;;6.27;3.13;;;6.70;99.90;;;;;;4920098;28;20468;-84
2021/12/02 07:45:09;;;;;;;3.20;2.67;;;6.70;99.90;;;;;;4925132;28;20514;-84
2021/12/02 07:47:45;;;;;;;6.53;2.97;;;6.70;99.90;;;;;;4922301;28;20463;-84
2021/12/02 07:50:39;;;;;;;3.33;3.03;;;6.70;99.90;;;;;;4929442;28;20461;-85
2021/12/02 07:53:24;;;;;;;3.20;2.20;;;6.70;99.90;;;;;;4924993;28;20560;-85
2021/12/02 07:56:25;;;;;;;5.93;2.30;;;6.70;99.90;;;;;;4915084;29;20514;-83
2021/12/02 07:59:00;;;;;;;2.57;2.27;;;6.60;99.90;;;;;;4914769;29;20459;-84
2021/12/02 08:01:50;;;;;;;4.40;2.63;;;6.60;99.90;;;;;;4913410;29;22006;-84
2021/12/02 08:04:31;;;;;;;3.63;2.00;;;6.60;99.90;;;;;;4913122;29;20469;-84
2021/12/02 08:06:58;;;;;;;4.53;2.50;;;6.60;99.90;;;;;;4911821;29;20457;-84
2021/12/02 08:09:46;;;;;;;4.63;1.90;;;6.60;99.90;;;;;;4908378;29;20499;-85
2021/12/02 08:12:13;;;;;;;2.07;1.90;;;6.50;99.90;;;;;;4903885;29;20497;-84
2021/12/02 08:14:49;;;;;;;2.30;1.70;;;6.50;99.90;;;;;;4906341;29;20484;-85
2021/12/02 08:17:19;;;;;;;2.90;1.90;;;6.50;99.90;;;;;;4904984;29;20452;-85
2021/12/02 08:19:49;;;;;;;3.20;1.70;;;6.60;99.90;;;;;;4903418;29;20473;-86
2021/12/02 08:22:19;;;;;;;2.80;1.77;;;6.50;99.90;;;;;;4907944;29;20532;-85
2021/12/02 08:24:54;;;;;;;3.53;2.63;;;6.50;99.90;;;;;;4919876;29;20477;-83
2021/12/02 08:27:23;;;;;;;4.67;2.43;;;6.50;99.90;;;;;;4922880;28;20457;-85
2021/12/02 08:29:53;;;;;;;3.10;2.87;;;6.50;99.90;;;;;;4910802;29;22118;-84
2021/12/02 08:32:30;;;;;;;3.20;3.00;;;6.60;99.90;;;;;;4908718;29;21286;-84
2021/12/02 08:35:05;;;;;;;3.03;2.67;;;6.60;99.90;;;;;;4909766;29;20468;-85
2021/12/02 08:37:43;;;;;;;3.70;2.67;;;6.60;99.90;;;;;;4909746;29;20489;-84
2021/12/02 08:40:31;;;;;;;3.70;2.80;;;6.60;99.90;;;;;;4906201;29;20461;-84
2021/12/02 08:43:18;;;;;;;3.00;2.40;;;6.60;99.90;;;;;;4904067;29;20629;-86
2021/12/02 08:45:46;;;;;;;4.93;2.37;;;6.60;99.90;;;;;;4907634;29;20461;-84
2021/12/02 08:48:13;;;;;;;4.93;3.70;;;6.50;99.90;;;;;;4904414;29;20547;-86
2021/12/02 08:50:42;;;;;;;2.93;2.73;;;6.50;99.90;;;;;;4904694;29;20567;-85
2021/12/02 08:53:10;;;;;;;3.30;3.00;;;6.40;99.90;;;;;;4904333;29;21512;-85
2021/12/02 08:55:38;;;;;;;5.30;3.20;;;6.50;99.90;;;;;;4898677;29;20501;-83
2021/12/02 08:58:07;;;;;;;3.37;3.10;;;6.50;99.90;;;;;;4901281;29;20625;-84
2021/12/02 09:00:39;;;;;;;3.10;2.70;;;6.50;99.90;;;;;;4901124;29;20542;-84
2021/12/02 09:03:09;;;;;;;3.87;3.30;;;6.50;99.90;;;;;;4901839;29;21731;-84
2021/12/02 09:05:43;;;;;;;3.50;2.80;;;6.60;99.90;;;;;;4896920;29;20476;-83
2021/12/02 09:08:19;;;;;;;3.57;3.27;;;6.50;99.90;;;;;;4902646;29;20465;-84
2021/12/02 09:10:52;;;;;;;7.60;4.40;;;6.50;99.90;;;;;;4901664;29;20958;-84
2021/12/02 09:13:27;;;;;;;4.37;3.97;;;6.50;99.90;;;;;;4901784;29;20511;-85
2021/12/02 09:15:58;;;;;;;4.90;3.87;;;6.60;99.90;;;;;;4901591;29;20474;-85
2021/12/02 09:18:38;;;;;;;4.80;4.40;;;6.50;99.90;;;;;;4903631;29;20596;-85
2021/12/02 09:21:11;;;;;;;4.00;3.60;;;6.50;99.90;;;;;;4901899;29;20510;-84
2021/12/02 09:23:37;;;;;;;4.20;3.77;;;6.50;99.90;;;;;;4901652;29;20502;-84
2021/12/02 09:26:04;;;;;;;5.30;4.10;;;6.50;99.90;;;;;;4901097;29;20475;-83
2021/12/02 09:28:32;;;;;;;3.60;3.40;;;6.40;99.90;;;;;;4902670;29;20509;-86
2021/12/02 09:31:01;;;;;;;4.67;4.27;;;6.30;99.90;;;;;;4906539;29;20836;-85
2021/12/02 09:33:41;;;;;;;3.90;3.50;;;6.40;99.90;;;;;;4903102;29;20489;-84
2021/12/02 09:36:08;;;;;;;4.33;3.93;;;6.40;99.90;;;;;;4907786;29;20501;-85
2021/12/02 09:39:08;;;;;;;5.20;4.03;;;6.50;99.90;;;;;;4897360;29;20493;-85
2021/12/02 09:41:52;;;;;;;4.27;3.87;;;6.40;99.90;;;;;;4902004;29;20493;-85
2021/12/02 09:45:05;;;;;;;4.60;4.20;;;6.50;99.90;;;;;;4900384;29;20477;-84
2021/12/02 09:48:17;;;;;;;4.20;3.80;;;6.60;99.90;;;;;;4900386;29;20460;-83
2021/12/02 09:54:18;;;;;;;4.77;4.10;;;6.80;99.90;;;;;;4874155;29;20482;-86
2021/12/02 09:56:51;;;;;;;4.20;3.17;;;6.80;99.90;;;;;;4906790;29;20539;-84
2021/12/02 09:59:54;;;;;;;3.67;3.33;;;6.80;99.90;;;;;;4905326;29;20479;-84
2021/12/02 10:02:24;;;;;;;3.50;3.20;;;6.80;99.90;;;;;;4851597;29;21098;-85
2021/12/02 10:05:13;;;;;;;3.80;3.30;;;6.80;99.90;;;;;;4884542;29;21945;-86
2021/12/02 10:08:00;;;;;;;3.60;3.30;;;6.80;99.90;;;;;;4903858;29;20486;-84
2021/12/02 10:10:50;;;;;;;3.03;2.77;;;6.70;99.90;;;;;;4904478;29;20479;-85
2021/12/02 10:13:29;;;;;;;2.40;2.23;;;6.70;99.90;;;;;;4903841;28;20496;-84
2021/12/02 10:16:10;;;;;;;2.60;2.10;;;6.70;99.90;;;;;;4906802;29;20513;-84
2021/12/02 10:19:02;;;;;;;3.17;2.70;;;6.60;99.90;;;;;;4901565;29;20463;-83
2021/12/02 10:21:44;;;;;;;4.27;3.97;;;6.60;99.90;;;;;;4905403;29;20478;-85
2021/12/02 10:24:41;;;;;;;3.80;2.90;;;6.50;99.90;;;;;;4904890;29;21712;-85
2021/12/02 10:27:19;;;;;;;4.07;2.27;;;6.60;99.90;;;;;;4905017;29;20568;-86
2021/12/02 10:29:54;;;;;;;2.47;2.27;;;6.60;99.90;;;;;;4898518;29;20494;-86
2021/12/02 10:32:34;;;;;;;4.63;2.60;;;6.60;99.90;;;;;;4906027;29;20528;-86
2021/12/02 10:35:17;;;;;;;2.60;2.40;;;6.70;99.90;;;;;;4903257;29;20474;-85
2021/12/02 10:38:06;;;;;;;3.00;2.80;;;6.80;99.90;;;;;;4898071;29;20473;-84
2021/12/02 10:41:00;;;;;;;4.30;2.67;;;6.80;99.90;;;;;;4909014;29;20485;-86
2021/12/02 10:43:29;;;;;;;4.27;3.50;;;6.90;99.90;;;;;;4915229;28;20500;-83
2021/12/02 10:46:16;;;;;;;4.60;2.97;;;6.90;99.90;;;;;;4922849;28;20472;-83
2021/12/02 10:48:50;;;;;;;4.37;2.77;;;6.90;99.90;;;;;;4900821;29;20472;-84
2021/12/02 10:51:50;;;;;;;3.27;2.90;;;6.90;99.90;;;;;;4904876;29;20588;-84
2021/12/02 10:54:22;;;;;;;3.80;2.73;;;6.90;99.90;;;;;;4896811;29;20545;-83
2021/12/02 10:56:57;;;;;;;2.80;2.47;;;6.90;99.90;;;;;;4902502;29;20454;-85
2021/12/02 10:59:32;;;;;;;2.80;2.60;;;6.90;99.90;;;;;;4898562;29;20497;-83
2021/12/02 11:02:22;;;;;;;3.40;2.60;;;6.90;99.90;;;;;;4915717;28;20508;-85
2021/12/02 11:05:10;;;;;;;4.30;2.97;;;6.90;99.90;;;;;;4899175;29;20469;-85
2021/12/02 11:07:40;;;;;;;4.30;2.73;;;7.00;99.90;;;;;;4901462;29;20526;-85
2021/12/02 11:10:14;;;;;;;2.90;2.43;;;7.10;99.90;;;;;;4901310;29;20482;-85
2021/12/02 11:12:44;;;;;;;3.27;2.23;;;7.00;99.90;;;;;;4899324;29;21708;-83
2021/12/02 11:15:29;;;;;;;3.70;2.30;;;6.90;99.90;;;;;;4902307;29;20458;-84
2021/12/02 11:17:59;;;;;;;2.97;2.67;;;6.90;99.90;;;;;;4905042;29;20452;-84
2021/12/02 11:20:51;;;;;;;3.83;3.40;;;6.90;99.90;;;;;;4890580;29;20489;-85
2021/12/02 11:23:28;;;;;;;4.70;2.50;;;6.90;99.90;;;;;;4911499;29;20489;-83
2021/12/02 11:25:57;;;;;;;2.90;2.23;;;6.90;99.90;;;;;;4905470;29;20467;-84
2021/12/02 11:28:27;;;;;;;5.87;2.07;;;6.90;99.90;;;;;;4903993;29;20519;-86
2021/12/02 11:30:56;;;;;;;4.40;2.10;;;7.10;99.90;;;;;;4913078;29;21910;-85
2021/12/02 11:33:52;;;;;;;8.67;1.70;;;7.20;99.90;;;;;;4912564;28;20600;-86
2021/12/02 11:36:36;;;;;;;2.33;1.70;;;7.10;99.90;;;;;;4916255;29;22265;-86
2021/12/02 11:39:29;;;;;;;1.70;1.60;;;7.00;99.90;;;;;;4931422;28;20457;-85
2021/12/02 11:42:19;;;;;;;3.87;2.03;;;6.90;99.90;;;;;;4916265;28;20483;-84
2021/12/02 11:44:58;;;;;;;3.00;1.90;;;6.90;99.90;;;;;;4908840;29;20467;-84
2021/12/02 11:47:36;;;;;;;4.70;1.53;;;6.90;99.90;;;;;;4905514;29;20459;-83
2021/12/02 11:50:28;;;;;;;4.37;1.50;;;6.90;99.90;;;;;;4900181;29;20544;-85
2021/12/02 11:53:00;;;;;;;1.63;1.50;;;6.90;99.90;;;;;;4901704;28;20571;-85
2021/12/02 11:55:34;;;;;;;3.07;1.97;;;6.90;99.90;;;;;;4898196;29;20462;-85
2021/12/02 11:58:01;;;;;;;1.87;1.20;;;6.80;99.90;;;;;;4904009;29;20522;-84
2021/12/02 12:00:29;;;;;;;2.83;1.50;;;6.90;99.90;;;;;;4903706;29;20485;-85
2021/12/02 12:03:06;;;;;;;1.60;1.50;;;6.90;99.90;;;;;;4902431;29;20485;-85
2021/12/02 12:05:40;;;;;;;1.70;1.60;;;6.80;99.90;;;;;;4904218;29;20462;-85
2021/12/02 12:08:07;;;;;;;2.10;1.83;;;6.90;99.90;;;;;;4900437;29;20463;-85
2021/12/02 12:10:38;;;;;;;3.47;1.83;;;6.90;99.90;;;;;;4903958;29;22839;-85
2021/12/02 12:13:14;;;;;;;4.67;2.10;;;6.90;99.90;;;;;;4908897;28;20529;-85
2021/12/02 12:15:49;;;;;;;4.07;2.23;;;6.90;99.90;;;;;;4907085;29;20553;-83
2021/12/02 12:18:24;;;;;;;2.40;2.20;;;6.90;99.90;;;;;;4900620;29;20472;-84
2021/12/02 12:21:01;;;;;;;2.90;2.70;;;6.90;99.90;;;;;;4888376;29;20504;-86
2021/12/02 12:23:35;;;;;;;7.13;3.20;;;6.90;99.90;;;;;;4903211;29;20490;-85
2021/12/02 12:26:13;;;;;;;5.30;3.80;;;6.90;99.90;;;;;;4901670;29;20469;-84
2021/12/02 12:29:12;;;;;;;3.50;2.43;;;6.80;99.90;;;;;;4904203;29;21076;-84
2021/12/02 12:32:08;;;;;;;5.47;4.97;;;6.90;99.90;;;;;;4914125;29;20495;-84
2021/12/02 12:34:39;;;;;;;10.33;2.50;;;6.80;99.90;;;;;;4915166;29;20675;-84
2021/12/02 12:37:20;;;;;;;3.40;2.20;;;6.70;99.90;;;;;;4900838;29;20466;-83
2021/12/02 12:40:21;;;;;;;2.80;2.33;;;6.70;99.90;;;;;;4897293;28;20474;-85
2021/12/02 12:42:59;;;;;;;2.33;1.90;;;6.80;99.70;;;;;;4879179;29;20500;-86
2021/12/02 12:45:33;;;;;;;2.60;2.10;;;6.70;98.90;;;;;;4922891;28;20574;-86
2021/12/02 12:48:03;;;;;;;3.43;2.30;;;6.70;99.20;;;;;;4899618;29;20980;-84
2021/12/02 12:50:37;;;;;;;2.40;2.20;;;6.70;99.30;;;;;;4903409;28;20566;-84
2021/12/02 12:53:04;;;;;;;2.70;2.50;;;6.80;99.20;;;;;;4906395;29;21726;-84
2021/12/02 12:55:35;;;;;;;3.83;2.43;;;6.80;99.20;;;;;;4909569;29;20838;-85
2021/12/02 12:58:22;;;;;;;2.53;2.27;;;6.90;99.10;;;;;;4906068;29;20460;-83
2021/12/02 13:00:57;;;;;;;3.70;3.03;;;7.00;99.30;;;;;;4908042;29;20480;-86
2021/12/02 13:03:29;;;;;;;3.27;2.97;;;7.00;99.30;;;;;;4911782;29;20473;-86
2021/12/02 13:06:19;;;;;;;4.03;2.97;;;6.90;99.40;;;;;;4912005;29;20464;-85
2021/12/02 13:08:53;;;;;;;10.23;4.10;;;6.90;99.70;;;;;;4917437;29;20453;-84
2021/12/02 13:11:24;;;;;;;4.07;2.87;;;6.80;99.80;;;;;;4922606;28;20525;-86
2021/12/02 13:13:53;;;;;;;2.80;2.60;;;6.90;99.90;;;;;;4915448;28;22052;-84
2021/12/02 13:16:20;;;;;;;4.77;2.87;;;6.90;99.70;;;;;;4905774;29;21092;-84
2021/12/02 13:19:01;;;;;;;4.67;2.93;;;6.70;99.80;;;;;;4914045;29;20469;-86
2021/12/02 13:21:33;;;;;;;4.80;3.30;;;6.80;99.90;;;;;;4907828;28;20453;-83
2021/12/02 13:24:18;;;;;;;3.77;3.37;;;6.70;99.90;;;;;;4908994;29;20462;-84
2021/12/02 13:26:46;;;;;;;3.83;3.07;;;6.80;99.90;;;;;;4928132;28;20494;-86
2021/12/02 13:29:28;;;;;;;4.57;3.20;;;6.80;99.90;;;;;;4912874;29;20582;-85
2021/12/02 13:32:00;;;;;;;4.53;3.10;;;6.70;99.90;;;;;;4912698;29;21023;-85
2021/12/02 13:34:29;;;;;;;3.30;2.90;;;6.70;99.90;;;;;;4903952;29;20455;-84
2021/12/02 13:37:00;;;;;;;3.07;2.80;;;6.70;99.90;;;;;;4900887;29;20464;-82
2021/12/02 13:39:34;;;;;;;3.50;2.70;;;6.70;99.90;;;;;;4902889;29;20474;-85
2021/12/02 13:42:08;;;;;;;3.53;3.23;;;6.60;99.90;;;;;;4908018;29;20481;-85
2021/12/02 13:44:44;;;;;;;6.53;2.73;;;6.60;99.90;;;;;;4908261;28;21663;-84
2021/12/02 13:47:22;;;;;;;4.03;2.70;;;6.60;99.90;;;;;;4915383;29;20536;-85
2021/12/02 13:49:54;;;;;;;3.10;2.87;;;6.70;99.90;;;;;;4910878;29;20483;-83
2021/12/02 13:55:15;;;;;;;4.97;3.00;;;6.60;99.90;;;;;;4924581;29;20445;-85
2021/12/02 13:58:07;;;;;;;6.33;3.60;;;6.60;99.90;;;;;;4925720;28;20454;-86
2021/12/02 14:00:36;;;;;;;4.47;3.17;;;6.50;99.90;;;;;;4936262;28;20455;-84
2021/12/02 14:06:28;;;;;;;6.87;3.53;;;6.50;99.90;;;;;;5301293;23;22071;-86
2021/12/02 14:09:17;;;;;;;6.57;4.30;;;6.50;99.90;;;;;;4959691;28;21115;-85